Time;durP1;ratioP1;P1;durP2;ratioP2;P2;SDS_P1;SDS_P2;PMS_P1;PMS_P2;Temp;Humidity;BMP_temperature;BMP_pressure;BME280_temperature;BME280_humidity;BME280_pressure;Samples;Min_cycle;Max_cycle;Signal;HPM_P1;HPM_P2
2022/03/15 00:01:29;;;;;;;0.40;0.30;;;;;;;9.14;100.00;102284.75;5112822;28;20509;-72
2022/03/15 00:03:57;;;;;;;0.40;0.30;;;;;;;9.13;100.00;102286.66;5116688;28;20477;-72
2022/03/15 00:06:23;;;;;;;1.10;1.00;;;;;;;9.14;100.00;102290.97;5117253;28;20439;-72
2022/03/15 00:08:50;;;;;;;0.40;0.40;;;;;;;9.14;100.00;102290.97;5116721;28;20432;-72
2022/03/15 00:11:17;;;;;;;0.40;0.27;;;;;;;9.18;100.00;102289.41;5116495;28;20959;-72
2022/03/15 00:13:43;;;;;;;0.40;0.30;;;;;;;9.13;100.00;102294.75;5116634;28;20442;-72
2022/03/15 00:16:10;;;;;;;0.40;0.30;;;;;;;9.08;100.00;102289.28;5116394;28;20475;-72
2022/03/15 00:18:37;;;;;;;6.67;3.60;;;;;;;9.08;100.00;102295.50;5116405;28;20471;-72
2022/03/15 00:21:08;;;;;;;0.40;0.30;;;;;;;9.05;100.00;102298.69;5115875;28;21003;-72
2022/03/15 00:23:35;;;;;;;0.40;0.30;;;;;;;9.02;100.00;102301.06;5116180;28;20553;-72
2022/03/15 00:26:01;;;;;;;0.40;0.30;;;;;;;9.02;100.00;102301.06;5116491;28;20464;-72
2022/03/15 00:28:31;;;;;;;0.60;0.60;;;;;;;9.03;100.00;102289.19;5116320;28;20454;-71
2022/03/15 00:30:57;;;;;;;0.40;0.30;;;;;;;8.99;100.00;102290.78;5116344;28;20902;-72
2022/03/15 00:33:24;;;;;;;0.40;0.30;;;;;;;8.97;100.00;102284.78;5116113;28;20448;-72
2022/03/15 00:35:51;;;;;;;0.40;0.30;;;;;;;9.02;100.00;102282.16;5115659;28;20473;-72
2022/03/15 00:38:19;;;;;;;0.40;0.30;;;;;;;9.00;100.00;102284.28;5115964;28;20547;-72
2022/03/15 00:40:45;;;;;;;0.60;0.60;;;;;;;9.01;100.00;102280.53;5115847;28;20478;-72
2022/03/15 00:43:12;;;;;;;2.53;2.30;;;;;;;9.02;100.00;102282.16;5115921;28;20443;-72
2022/03/15 00:45:39;;;;;;;0.50;0.50;;;;;;;9.02;100.00;102285.66;5115670;28;20478;-72
2022/03/15 00:48:07;;;;;;;0.40;0.30;;;;;;;8.97;100.00;102292.88;5116144;28;20428;-71
2022/03/15 00:50:39;;;;;;;0.40;0.30;;;;;;;8.93;100.00;102289.03;5115743;28;20884;-72
2022/03/15 00:53:06;;;;;;;0.40;0.30;;;;;;;8.87;100.00;102284.66;5115513;28;20909;-71
2022/03/15 00:55:34;;;;;;;0.40;0.30;;;;;;;8.86;100.00;102296.53;5115668;28;20506;-72
2022/03/15 00:58:00;;;;;;;0.40;0.30;;;;;;;8.80;100.00;102299.13;5115685;28;20447;-71
2022/03/15 01:00:27;;;;;;;3.50;2.47;;;;;;;8.70;100.00;102285.47;5115359;28;20472;-72
2022/03/15 01:02:54;;;;;;;0.40;0.30;;;;;;;8.70;100.00;102285.47;5115540;28;20467;-71
2022/03/15 01:05:20;;;;;;;0.40;0.30;;;;;;;8.63;100.00;102282.09;5115401;28;20460;-71
2022/03/15 01:07:46;;;;;;;0.40;0.30;;;;;;;8.64;100.00;102278.34;5115896;28;20446;-72
2022/03/15 01:10:13;;;;;;;0.40;0.30;;;;;;;8.65;100.00;102276.47;5115387;28;20450;-71
2022/03/15 01:12:41;;;;;;;0.40;0.40;;;;;;;8.64;100.00;102275.66;5115418;28;20447;-71
2022/03/15 01:15:08;;;;;;;0.40;0.30;;;;;;;8.67;100.00;102274.31;5115020;28;21113;-72
2022/03/15 01:17:35;;;;;;;0.40;0.30;;;;;;;8.61;100.00;102276.13;5114979;28;20435;-72
2022/03/15 01:20:02;;;;;;;0.60;0.30;;;;;;;8.55;100.00;102267.16;5115412;28;20440;-72
2022/03/15 01:22:29;;;;;;;0.40;0.30;;;;;;;8.53;100.00;102271.13;5115138;28;20465;-72
2022/03/15 01:24:56;;;;;;;0.70;0.50;;;;;;;8.46;100.00;102276.72;5114773;28;20464;-72
2022/03/15 01:27:22;;;;;;;0.40;0.30;;;;;;;8.39;100.00;102277.94;5115054;28;20530;-72
2022/03/15 01:29:50;;;;;;;0.40;0.30;;;;;;;8.34;100.00;102282.16;5115064;28;20443;-71
2022/03/15 01:32:17;;;;;;;1.17;0.93;;;;;;;8.25;100.00;102272.81;5114687;28;20436;-72
2022/03/15 01:34:43;;;;;;;0.40;0.30;;;;;;;8.17;100.00;102281.31;5114862;28;20495;-72
2022/03/15 01:37:10;;;;;;;0.40;0.30;;;;;;;8.11;100.00;102282.28;5114865;28;20451;-72
2022/03/15 01:39:37;;;;;;;0.40;0.30;;;;;;;8.06;100.00;102285.72;5114438;28;20446;-72
2022/03/15 01:42:04;;;;;;;0.40;0.30;;;;;;;7.99;100.00;102290.44;5114837;28;20510;-72
2022/03/15 01:44:33;;;;;;;0.40;0.30;;;;;;;7.97;100.00;102291.72;5114691;28;20471;-72
2022/03/15 01:47:01;;;;;;;0.97;0.97;;;;;;;7.87;100.00;102296.94;5114635;28;20446;-71
2022/03/15 01:49:27;;;;;;;0.43;0.30;;;;;;;7.79;100.00;102298.97;5114498;28;20431;-72
2022/03/15 01:51:54;;;;;;;0.40;0.30;;;;;;;7.77;100.00;102290.28;5114403;28;20497;-72
2022/03/15 01:54:21;;;;;;;0.40;0.30;;;;;;;7.68;100.00;102294.41;5114302;28;20455;-71
2022/03/15 01:56:47;;;;;;;0.40;0.30;;;;;;;7.68;100.00;102307.09;5114338;28;20867;-71
2022/03/15 01:59:16;;;;;;;0.40;0.30;;;;;;;7.66;100.00;102312.72;5114190;28;20443;-71
2022/03/15 02:01:43;;;;;;;0.40;0.30;;;;;;;7.57;100.00;102304.19;5115160;28;20865;-72
2022/03/15 02:04:12;;;;;;;0.40;0.30;;;;;;;7.58;100.00;102307.69;5114139;28;20442;-72
2022/03/15 02:06:41;;;;;;;0.40;0.30;;;;;;;7.54;100.00;102304.66;5114089;28;20780;-72
2022/03/15 02:09:09;;;;;;;0.40;0.30;;;;;;;7.56;100.00;102307.09;5114117;28;20450;-71
2022/03/15 02:11:36;;;;;;;0.40;0.30;;;;;;;7.44;100.00;102303.63;5114014;28;20432;-72
2022/03/15 02:14:02;;;;;;;0.40;0.30;;;;;;;7.41;100.00;102306.78;5113846;28;20439;-71
2022/03/15 02:16:29;;;;;;;0.40;0.30;;;;;;;7.42;100.00;102305.72;5113898;28;20851;-71
2022/03/15 02:18:57;;;;;;;0.40;0.30;;;;;;;7.35;100.00;102308.56;5113844;28;20443;-71
2022/03/15 02:21:25;;;;;;;0.40;0.30;;;;;;;7.27;100.00;102319.72;5113503;28;20531;-72
2022/03/15 02:23:52;;;;;;;0.40;0.30;;;;;;;7.26;100.00;102309.97;5113989;28;20509;-72
2022/03/15 02:26:18;;;;;;;0.40;0.30;;;;;;;7.30;100.00;102322.75;5113365;28;20814;-72
2022/03/15 02:28:45;;;;;;;0.40;0.30;;;;;;;7.36;100.00;102323.69;5113389;28;20932;-71
2022/03/15 02:31:12;;;;;;;3.30;3.17;;;;;;;7.40;100.00;102318.63;5113642;28;20567;-72
2022/03/15 02:33:39;;;;;;;0.40;0.30;;;;;;;7.45;100.00;102322.25;5113359;28;20933;-71
2022/03/15 02:36:05;;;;;;;0.40;0.30;;;;;;;7.45;100.00;102316.88;5113559;28;20463;-72
2022/03/15 02:38:33;;;;;;;0.40;0.30;;;;;;;7.53;100.00;102318.38;5113533;28;20498;-71
2022/03/15 02:41:00;;;;;;;0.40;0.30;;;;;;;7.61;100.00;102319.88;5113428;28;20483;-71
2022/03/15 02:43:26;;;;;;;0.83;0.83;;;;;;;7.61;100.00;102325.25;5113521;28;20538;-71
2022/03/15 02:45:52;;;;;;;0.40;0.30;;;;;;;7.62;100.00;102316.97;5113418;28;20456;-71
2022/03/15 02:48:19;;;;;;;0.40;0.30;;;;;;;7.56;100.00;102323.28;5113428;28;20447;-72
2022/03/15 02:50:45;;;;;;;1.57;1.47;;;;;;;7.62;100.00;102322.34;5113487;28;20443;-72
2022/03/15 02:53:12;;;;;;;0.40;0.30;;;;;;;7.58;100.00;102316.59;5113398;28;20959;-71
2022/03/15 02:55:39;;;;;;;0.40;0.30;;;;;;;7.59;100.00;102322.81;5113283;28;20828;-71
2022/03/15 02:58:06;;;;;;;0.40;0.30;;;;;;;7.57;100.00;102324.94;5113040;28;20488;-72
2022/03/15 03:00:33;;;;;;;0.40;0.30;;;;;;;7.50;100.00;102325.06;5112951;28;20823;-71
2022/03/15 03:02:59;;;;;;;0.40;0.30;;;;;;;7.48;100.00;102326.34;5113673;28;20443;-76
2022/03/15 03:05:26;;;;;;;0.40;0.30;;;;;;;7.46;100.00;102320.38;5113756;28;20477;-74
2022/03/15 03:07:52;;;;;;;0.40;0.30;;;;;;;7.43;100.00;102332.44;5112855;28;20944;-74
2022/03/15 03:10:20;;;;;;;0.40;0.40;;;;;;;7.37;100.00;102327.19;5113259;28;20445;-71
2022/03/15 03:12:48;;;;;;;0.40;0.30;;;;;;;7.31;100.00;102327.09;5113130;28;20447;-71
2022/03/15 03:15:18;;;;;;;0.40;0.30;;;;;;;7.25;100.00;102321.81;5112635;28;20464;-72
2022/03/15 03:17:45;;;;;;;0.40;0.40;;;;;;;7.20;100.00;102324.38;5113191;28;20541;-72
2022/03/15 03:20:14;;;;;;;0.40;0.30;;;;;;;7.12;100.00;102322.84;5113111;28;20448;-72
2022/03/15 03:22:41;;;;;;;0.40;0.30;;;;;;;7.07;100.00;102330.81;5113118;28;20507;-72
2022/03/15 03:25:09;;;;;;;0.40;0.30;;;;;;;7.01;100.00;102337.16;5112739;28;20498;-72
2022/03/15 03:27:35;;;;;;;0.40;0.30;;;;;;;6.93;100.00;102332.13;5113100;28;20614;-72
2022/03/15 03:30:04;;;;;;;0.40;0.30;;;;;;;6.90;100.00;102335.28;5113172;28;20504;-71
2022/03/15 03:32:31;;;;;;;0.40;0.30;;;;;;;6.81;100.00;102332.91;5113059;28;20439;-72
2022/03/15 03:34:58;;;;;;;0.40;0.30;;;;;;;6.77;100.00;102336.31;5113247;28;20494;-72
2022/03/15 03:37:25;;;;;;;0.60;0.30;;;;;;;6.70;100.00;102344.50;5114278;28;20443;-72
2022/03/15 03:39:52;;;;;;;0.40;0.30;;;;;;;6.64;100.00;102334.66;5117241;28;20813;-71
2022/03/15 03:42:19;;;;;;;0.40;0.30;;;;;;;6.59;100.00;102321.06;5116702;28;20860;-72
2022/03/15 03:44:46;;;;;;;0.40;0.30;;;;;;;6.54;100.00;102337.09;5117388;28;20464;-71
2022/03/15 03:47:13;;;;;;;0.40;0.30;;;;;;;6.42;100.00;102339.75;5116802;28;20862;-71
2022/03/15 03:49:40;;;;;;;0.40;0.30;;;;;;;6.45;100.00;102335.78;5116960;28;20443;-71
2022/03/15 03:52:08;;;;;;;0.40;0.30;;;;;;;6.37;100.00;102346.88;5116658;28;20443;-71
2022/03/15 03:54:35;;;;;;;0.40;0.30;;;;;;;6.26;100.00;102351.97;5116510;28;20459;-71
2022/03/15 03:57:02;;;;;;;5.83;3.10;;;;;;;6.22;100.00;102345.41;5116770;28;20451;-71
2022/03/15 03:59:28;;;;;;;0.40;0.30;;;;;;;6.17;100.00;102339.91;5116826;28;20443;-71
2022/03/15 04:01:54;;;;;;;0.40;0.30;;;;;;;6.11;100.00;102343.53;5117023;28;20487;-71
2022/03/15 04:04:23;;;;;;;0.40;0.30;;;;;;;6.07;100.00;102334.25;5116389;28;20471;-71
2022/03/15 04:06:50;;;;;;;0.40;0.40;;;;;;;6.05;100.00;102341.72;5116752;28;20450;-70
2022/03/15 04:09:16;;;;;;;0.40;0.30;;;;;;;6.04;100.00;102342.78;5116635;28;20446;-71
2022/03/15 04:11:43;;;;;;;0.40;0.30;;;;;;;5.96;100.00;102337.69;5116903;28;20441;-71
2022/03/15 04:14:11;;;;;;;0.40;0.30;;;;;;;5.91;100.00;102334.84;5116176;28;20937;-71
2022/03/15 04:16:37;;;;;;;0.40;0.30;;;;;;;5.91;100.00;102346.41;5116521;28;20825;-71
2022/03/15 04:19:04;;;;;;;0.40;0.30;;;;;;;5.91;100.00;102348.28;5116555;28;20446;-71
2022/03/15 04:21:33;;;;;;;0.40;0.30;;;;;;;5.88;100.00;102343.34;5116121;28;20487;-71
2022/03/15 04:23:59;;;;;;;0.40;0.30;;;;;;;5.81;100.00;102340.75;5116121;28;20459;-72
2022/03/15 04:26:27;;;;;;;0.40;0.30;;;;;;;5.69;100.00;102348.75;5116494;28;20435;-72
2022/03/15 04:28:55;;;;;;;0.40;0.30;;;;;;;5.69;100.00;102351.44;5116414;28;20442;-71
2022/03/15 04:31:22;;;;;;;1.60;1.53;;;;;;;5.54;100.00;102346.44;5116418;28;20462;-71
2022/03/15 04:33:49;;;;;;;0.40;0.30;;;;;;;5.60;100.00;102346.59;5116022;28;20812;-71
2022/03/15 04:36:16;;;;;;;0.40;0.30;;;;;;;5.55;100.00;102350.78;5116203;28;20455;-71
2022/03/15 04:38:43;;;;;;;0.40;0.30;;;;;;;5.56;100.00;102346.22;5116183;28;20438;-71
2022/03/15 04:41:11;;;;;;;0.40;0.30;;;;;;;5.51;100.00;102351.44;5116082;28;20443;-71
2022/03/15 04:43:37;;;;;;;0.50;0.43;;;;;;;5.48;100.00;102343.81;5115752;28;20937;-71
2022/03/15 04:46:04;;;;;;;0.40;0.30;;;;;;;5.51;100.00;102346.06;5116050;28;20467;-72
2022/03/15 04:48:31;;;;;;;0.40;0.30;;;;;;;5.45;100.00;102346.97;5115701;28;20449;-71
2022/03/15 04:50:57;;;;;;;0.40;0.30;;;;;;;5.48;100.00;102339.25;5116056;28;20529;-72
2022/03/15 04:53:24;;;;;;;0.40;0.30;;;;;;;5.42;100.00;102339.34;5116051;28;20447;-71
2022/03/15 04:55:51;;;;;;;0.40;0.30;;;;;;;5.48;100.00;102333.06;5115952;28;20880;-72
2022/03/15 04:58:18;;;;;;;0.40;0.30;;;;;;;5.55;100.00;102333.81;5115923;28;20439;-72
2022/03/15 05:00:44;;;;;;;0.40;0.37;;;;;;;5.53;100.00;102330.53;5115810;28;20439;-72
2022/03/15 05:03:11;;;;;;;1.17;1.17;;;;;;;5.41;100.00;102327.78;5115407;28;21057;-72
2022/03/15 05:05:37;;;;;;;0.40;0.30;;;;;;;5.40;100.00;102330.66;5115678;28;20495;-73
2022/03/15 05:08:05;;;;;;;0.40;0.30;;;;;;;5.35;100.00;102333.22;5115744;28;20446;-73
2022/03/15 05:13:18;;;;;;;0.40;0.30;;;;;;;5.32;100.00;102323.75;5115540;28;20974;-73
2022/03/15 05:15:44;;;;;;;1.47;1.37;;;;;;;5.19;100.00;102319.31;5115445;28;20513;-72
2022/03/15 05:18:11;;;;;;;0.40;0.30;;;;;;;5.23;100.00;102320.53;5115525;28;20447;-73
2022/03/15 05:20:37;;;;;;;0.40;0.30;;;;;;;5.24;100.00;102321.34;5115437;28;20493;-72
2022/03/15 05:23:04;;;;;;;0.40;0.30;;;;;;;5.19;100.00;102319.31;5115192;28;20490;-72
2022/03/15 05:25:30;;;;;;;0.40;0.30;;;;;;;5.12;100.00;102333.84;5115323;28;20475;-71
2022/03/15 05:27:57;;;;;;;0.40;0.30;;;;;;;5.17;100.00;102320.56;5115604;28;20443;-74
2022/03/15 05:30:25;;;;;;;0.40;0.30;;;;;;;5.13;100.00;102322.88;5115104;28;20530;-71
2022/03/15 05:32:51;;;;;;;0.40;0.30;;;;;;;5.01;100.00;102328.16;5114944;28;20441;-71
2022/03/15 05:35:18;;;;;;;0.40;0.30;;;;;;;4.99;100.00;102335.59;5114881;28;20459;-70
2022/03/15 05:37:44;;;;;;;0.50;0.30;;;;;;;5.00;100.00;102333.75;5114506;28;20980;-70
2022/03/15 05:40:12;;;;;;;0.50;0.50;;;;;;;4.96;100.00;102325.34;5114831;28;20440;-70
2022/03/15 05:42:38;;;;;;;1.07;1.03;;;;;;;4.93;100.00;102325.75;5114882;28;20486;-70
2022/03/15 05:45:05;;;;;;;0.77;0.53;;;;;;;5.02;100.00;102326.31;5114826;28;20459;-70
2022/03/15 05:47:34;;;;;;;0.40;0.30;;;;;;;5.03;100.00;102336.00;5114606;28;20502;-70
2022/03/15 05:50:00;;;;;;;0.40;0.30;;;;;;;5.07;100.00;102329.16;5114540;28;20541;-71
2022/03/15 05:52:27;;;;;;;0.40;0.30;;;;;;;5.11;100.00;102335.72;5114528;28;20496;-70
2022/03/15 05:54:53;;;;;;;0.40;0.40;;;;;;;5.10;100.00;102333.25;5114385;28;20463;-71
2022/03/15 05:57:20;;;;;;;0.40;0.30;;;;;;;5.15;100.00;102317.31;5113961;28;20447;-71
2022/03/15 05:59:46;;;;;;;0.40;0.30;;;;;;;5.19;100.00;102326.56;5113529;28;20447;-71
2022/03/15 06:02:12;;;;;;;0.40;0.40;;;;;;;5.30;100.00;102323.94;5114237;28;20537;-70
2022/03/15 06:04:40;;;;;;;0.40;0.30;;;;;;;5.29;100.00;102327.69;5114167;28;20459;-70
2022/03/15 06:07:07;;;;;;;0.40;0.30;;;;;;;5.40;100.00;102331.53;5114014;28;20440;-71
2022/03/15 06:09:33;;;;;;;0.40;0.30;;;;;;;5.36;100.00;102329.47;5114391;28;20455;-71
2022/03/15 06:12:00;;;;;;;0.40;0.30;;;;;;;5.47;100.00;102334.13;5113823;28;20458;-70
2022/03/15 06:14:26;;;;;;;0.40;0.30;;;;;;;5.52;100.00;102342.31;5113897;28;20459;-71
2022/03/15 06:16:53;;;;;;;0.40;0.30;;;;;;;5.53;100.00;102328.69;5114049;28;20435;-71
2022/03/15 06:19:19;;;;;;;0.40;0.30;;;;;;;5.61;100.00;102334.78;5113790;28;20991;-70
2022/03/15 06:21:47;;;;;;;0.40;0.30;;;;;;;5.70;100.00;102333.44;5113652;28;20423;-70
2022/03/15 06:24:13;;;;;;;0.90;0.70;;;;;;;5.79;100.00;102330.22;5113625;28;20483;-71
2022/03/15 06:26:42;;;;;;;0.40;0.30;;;;;;;5.86;100.00;102329.31;5113874;28;20466;-71
2022/03/15 06:29:09;;;;;;;0.40;0.30;;;;;;;5.87;100.00;102330.97;5113766;28;20443;-71
2022/03/15 06:31:35;;;;;;;0.40;0.30;;;;;;;5.91;100.00;102330.28;5113713;28;20443;-71
2022/03/15 06:34:04;;;;;;;0.40;0.30;;;;;;;5.97;100.00;102320.50;5113671;28;20439;-70
2022/03/15 06:36:31;;;;;;;0.40;0.30;;;;;;;6.00;100.00;102338.88;5113657;28;20450;-71
2022/03/15 06:38:59;;;;;;;0.40;0.30;;;;;;;6.10;100.00;102332.97;5113607;28;20448;-71
2022/03/15 06:41:26;;;;;;;0.77;0.77;;;;;;;6.15;100.00;102333.91;5113589;28;20443;-70
2022/03/15 06:43:52;;;;;;;0.40;0.30;;;;;;;6.21;100.00;102335.72;5113630;28;20540;-70
2022/03/15 06:46:19;;;;;;;0.40;0.30;;;;;;;6.34;100.00;102339.28;5113535;28;20447;-70
2022/03/15 06:48:45;;;;;;;0.40;0.30;;;;;;;6.42;100.00;102339.75;5113430;28;20512;-70
2022/03/15 06:51:12;;;;;;;0.40;0.30;;;;;;;6.54;100.00;102337.91;5113157;28;20933;-70
2022/03/15 06:53:40;;;;;;;0.40;0.30;;;;;;;6.63;100.00;102333.00;5113309;28;20519;-69
2022/03/15 06:56:08;;;;;;;0.40;0.30;;;;;;;6.72;100.00;102338.88;5112837;28;20992;-70
2022/03/15 06:58:35;;;;;;;0.40;0.30;;;;;;;6.79;100.00;102337.72;5113153;28;20534;-70
2022/03/15 07:01:01;;;;;;;1.17;1.17;;;;;;;6.91;100.00;102348.53;5113138;28;20443;-70
2022/03/15 07:03:28;;;;;;;0.40;0.30;;;;;;;7.02;100.00;102344.19;5113074;28;20533;-73
2022/03/15 07:05:54;;;;;;;1.67;1.57;;;;;;;7.14;100.00;102344.19;5112646;28;20980;-74
2022/03/15 07:08:20;;;;;;;0.40;0.30;;;;;;;7.24;100.00;102339.84;5113397;28;20439;-76
2022/03/15 07:10:47;;;;;;;0.57;0.57;;;;;;;7.27;100.00;102333.19;5112697;28;20929;-69
2022/03/15 07:13:15;;;;;;;0.40;0.30;;;;;;;7.34;100.00;102345.47;5113041;28;20435;-70
2022/03/15 07:15:41;;;;;;;0.57;0.57;;;;;;;7.46;100.00;102340.06;5113283;28;20463;-72
2022/03/15 07:18:08;;;;;;;0.40;0.30;;;;;;;7.55;100.00;102345.91;5113031;28;20440;-71
2022/03/15 07:20:34;;;;;;;0.40;0.30;;;;;;;7.62;100.00;102348.50;5112758;28;20828;-71
2022/03/15 07:23:00;;;;;;;0.70;0.70;;;;;;;7.67;100.00;102348.59;5112946;28;20511;-70
2022/03/15 07:25:27;;;;;;;0.40;0.30;;;;;;;7.72;100.00;102348.69;5112717;28;20971;-71
2022/03/15 07:27:53;;;;;;;0.40;0.30;;;;;;;7.69;100.00;102355.38;5112821;28;20451;-74
2022/03/15 07:30:21;;;;;;;0.40;0.30;;;;;;;7.75;100.00;102353.63;5112989;28;20450;-74
2022/03/15 07:32:48;;;;;;;0.40;0.30;;;;;;;7.77;100.00;102357.72;5113136;28;20436;-74
2022/03/15 07:35:14;;;;;;;0.40;0.30;;;;;;;7.81;100.00;102358.88;5112620;28;20464;-73
2022/03/15 07:37:49;;;;;;;0.40;0.30;;;;;;;7.93;100.00;102363.44;5113869;28;20450;-73
2022/03/15 07:40:15;;;;;;;0.40;0.30;;;;;;;7.96;100.00;102365.63;5113025;28;20423;-74
2022/03/15 07:42:42;;;;;;;0.40;0.30;;;;;;;8.01;100.00;102368.44;5112891;28;20484;-74
2022/03/15 07:45:09;;;;;;;0.60;0.60;;;;;;;8.06;100.00;102366.66;5113016;28;20467;-71
2022/03/15 07:47:37;;;;;;;1.20;1.13;;;;;;;8.11;100.00;102362.44;5112815;28;20435;-71
2022/03/15 07:50:04;;;;;;;0.40;0.30;;;;;;;8.08;100.00;102361.84;5112934;28;20837;-71
2022/03/15 07:52:31;;;;;;;0.40;0.30;;;;;;;8.17;100.00;102362.28;5112824;28;20436;-71
2022/03/15 07:54:57;;;;;;;1.63;1.53;;;;;;;8.18;100.00;102369.31;5112626;28;20456;-70
2022/03/15 07:57:24;;;;;;;0.40;0.30;;;;;;;8.22;100.00;102356.97;5112825;28;20471;-71
2022/03/15 07:59:50;;;;;;;0.40;0.30;;;;;;;8.23;100.00;102360.50;5113227;28;20440;-71
2022/03/15 08:02:17;;;;;;;0.40;0.30;;;;;;;8.33;100.00;102353.41;5114540;28;20455;-71
2022/03/15 08:04:45;;;;;;;0.40;0.30;;;;;;;8.37;100.00;102355.63;5113092;28;20475;-71
2022/03/15 08:07:11;;;;;;;1.90;1.80;;;;;;;8.44;100.00;102362.53;5113123;28;20485;-71
2022/03/15 08:09:38;;;;;;;0.40;0.30;;;;;;;8.46;100.00;102354.22;5113045;28;20817;-72
2022/03/15 08:12:05;;;;;;;0.40;0.30;;;;;;;8.53;100.00;102350.28;5113010;28;20443;-71
2022/03/15 08:14:32;;;;;;;0.40;0.30;;;;;;;8.52;100.00;102350.53;5112988;28;20463;-71
2022/03/15 08:16:58;;;;;;;1.50;1.40;;;;;;;8.58;100.00;102344.13;5113248;28;20439;-71
2022/03/15 08:19:26;;;;;;;0.40;0.30;;;;;;;8.75;100.00;102336.88;5113099;28;20435;-71
2022/03/15 08:21:54;;;;;;;0.40;0.27;;;;;;;8.88;100.00;102341.13;5113015;28;20580;-71
2022/03/15 08:24:22;;;;;;;0.97;0.97;;;;;;;8.92;100.00;102333.34;5114997;28;20491;-71
2022/03/15 08:26:49;;;;;;;0.40;0.30;;;;;;;9.03;99.69;102329.72;5116671;28;20475;-71
2022/03/15 08:29:16;;;;;;;0.40;0.30;;;;;;;9.13;99.33;102332.59;5116499;28;20530;-71
2022/03/15 08:31:43;;;;;;;0.40;0.30;;;;;;;9.21;98.58;102325.94;5116583;28;20891;-71
2022/03/15 08:34:09;;;;;;;0.40;0.30;;;;;;;9.21;98.14;102323.22;5116174;28;20811;-69
2022/03/15 08:36:37;;;;;;;0.40;0.30;;;;;;;9.25;98.03;102327.06;5116693;28;20440;-72
2022/03/15 08:39:05;;;;;;;0.40;0.30;;;;;;;9.29;98.33;102325.50;5116120;28;20436;-72
2022/03/15 08:41:31;;;;;;;0.40;0.30;;;;;;;9.41;98.42;102330.81;5116282;28;20488;-74
2022/03/15 08:43:58;;;;;;;0.40;0.30;;;;;;;9.49;98.12;102325.00;5115819;28;20495;-71
2022/03/15 08:46:24;;;;;;;0.40;0.30;;;;;;;9.51;97.85;102328.25;5116330;28;20444;-71
2022/03/15 08:48:50;;;;;;;0.60;0.60;;;;;;;9.66;97.20;102325.75;5115865;28;20443;-71
2022/03/15 08:51:17;;;;;;;0.80;0.80;;;;;;;9.76;96.92;102325.88;5116275;28;20474;-71
2022/03/15 08:53:43;;;;;;;0.40;0.30;;;;;;;9.83;96.18;102326.50;5115688;28;20443;-70
2022/03/15 08:56:11;;;;;;;0.40;0.30;;;;;;;9.93;95.54;102330.41;5115623;28;20854;-70
2022/03/15 08:58:38;;;;;;;0.57;0.30;;;;;;;9.95;95.46;102323.63;5115576;28;20439;-73
2022/03/15 09:01:04;;;;;;;0.40;0.30;;;;;;;10.07;95.23;102326.22;5115491;28;20545;-73
2022/03/15 09:03:31;;;;;;;0.50;0.30;;;;;;;10.15;94.71;102314.13;5116048;28;20502;-74
2022/03/15 09:05:57;;;;;;;0.50;0.50;;;;;;;10.20;94.82;102308.75;5115801;28;20471;-73
2022/03/15 09:08:24;;;;;;;0.40;0.30;;;;;;;10.32;94.32;102318.38;5115767;28;20443;-73
2022/03/15 09:10:50;;;;;;;0.40;0.30;;;;;;;10.37;93.68;102309.50;5115493;28;20940;-73
2022/03/15 09:13:18;;;;;;;0.40;0.20;;;;;;;10.47;93.17;102304.16;5115650;28;20436;-74
2022/03/15 09:15:45;;;;;;;0.40;0.30;;;;;;;10.56;92.68;102315.34;5115520;28;20839;-73
2022/03/15 09:18:11;;;;;;;0.40;0.30;;;;;;;10.62;91.91;102308.88;5115648;28;20431;-74
2022/03/15 09:20:38;;;;;;;0.77;0.77;;;;;;;10.71;91.85;102301.91;5115799;28;20442;-74
2022/03/15 09:23:06;;;;;;;0.40;0.30;;;;;;;10.83;91.57;102313.38;5115083;28;20887;-74
2022/03/15 09:25:32;;;;;;;0.40;0.30;;;;;;;10.98;90.49;102312.69;5115418;28;20869;-73
2022/03/15 09:27:59;;;;;;;0.40;0.30;;;;;;;11.02;88.85;102305.66;5115187;28;20933;-73
2022/03/15 09:30:30;;;;;;;0.40;0.20;;;;;;;11.01;88.55;102311.34;5115432;28;20493;-73
2022/03/15 09:32:57;;;;;;;0.40;0.30;;;;;;;11.06;88.86;102304.03;5115325;28;20432;-73
2022/03/15 09:35:24;;;;;;;0.40;0.30;;;;;;;11.16;88.68;102300.59;5114099;28;20459;-73
2022/03/15 09:37:50;;;;;;;0.40;0.30;;;;;;;11.14;88.33;102305.44;5114948;28;20446;-73
2022/03/15 09:40:22;;;;;;;2.33;2.23;;;;;;;11.15;88.67;102293.50;5115234;28;20435;-73
2022/03/15 09:42:51;;;;;;;0.40;0.27;;;;;;;11.34;88.67;102302.88;5114810;28;20928;-74
2022/03/15 09:45:21;;;;;;;0.40;0.30;;;;;;;11.36;87.37;102300.69;5115036;28;20471;-74
2022/03/15 09:47:52;;;;;;;0.40;0.30;;;;;;;11.49;87.01;102293.16;5114774;28;20941;-74
2022/03/15 09:50:20;;;;;;;0.40;0.30;;;;;;;11.54;86.80;102288.56;5114758;28;20901;-73
2022/03/15 09:52:49;;;;;;;0.40;0.30;;;;;;;11.69;86.68;102293.25;5115113;28;20439;-73
2022/03/15 09:55:15;;;;;;;0.40;0.30;;;;;;;11.81;86.26;102291.09;5114921;28;20471;-73
2022/03/15 09:57:42;;;;;;;0.40;0.30;;;;;;;11.95;85.00;102298.75;5114858;28;20445;-73
2022/03/15 10:00:10;;;;;;;1.43;1.33;;;;;;;12.07;84.35;102283.03;5114596;28;20435;-73
2022/03/15 10:02:40;;;;;;;0.40;0.20;;;;;;;12.22;84.21;102282.25;5114825;28;20447;-73
2022/03/15 10:05:09;;;;;;;0.40;0.30;;;;;;;12.24;83.55;102289.03;5114920;28;20503;-73
2022/03/15 10:07:36;;;;;;;0.40;0.30;;;;;;;12.34;81.60;102283.63;5114355;28;20986;-73
2022/03/15 10:10:04;;;;;;;0.40;0.30;;;;;;;12.43;82.15;102289.31;5114760;28;20551;-73
2022/03/15 10:12:31;;;;;;;0.40;0.30;;;;;;;12.50;81.05;102286.34;5114758;28;20440;-73
2022/03/15 10:14:58;;;;;;;0.40;0.20;;;;;;;12.51;80.41;102288.78;5114531;28;20455;-74
2022/03/15 10:17:24;;;;;;;0.40;0.30;;;;;;;12.58;79.79;102291.25;5114528;28;20453;-73
2022/03/15 10:19:52;;;;;;;0.40;0.30;;;;;;;12.63;79.63;102286.63;5114740;28;20439;-73
2022/03/15 10:22:22;;;;;;;0.40;0.30;;;;;;;12.71;79.80;102279.00;5114544;28;20439;-73
2022/03/15 10:24:49;;;;;;;0.40;0.30;;;;;;;12.77;80.33;102281.44;5114435;28;20483;-74
2022/03/15 10:27:16;;;;;;;0.50;0.43;;;;;;;12.83;78.60;102263.19;5114019;28;20941;-74
2022/03/15 10:29:43;;;;;;;0.40;0.30;;;;;;;12.93;80.37;102270.53;5114296;28;20435;-73
2022/03/15 10:32:10;;;;;;;0.40;0.30;;;;;;;12.98;75.82;102265.09;5114316;28;20471;-74
2022/03/15 10:34:37;;;;;;;0.40;0.30;;;;;;;13.04;75.37;102264.78;5114144;28;20512;-73
2022/03/15 10:37:04;;;;;;;0.40;0.30;;;;;;;13.10;75.41;102271.88;5114231;28;20431;-74
2022/03/15 10:39:32;;;;;;;0.40;0.30;;;;;;;13.18;76.58;102265.00;5114127;28;20465;-74
2022/03/15 10:42:00;;;;;;;0.40;0.30;;;;;;;13.24;74.95;102263.97;5113973;28;20933;-75
2022/03/15 10:44:28;;;;;;;0.40;0.30;;;;;;;13.35;75.28;102251.94;5113910;28;20544;-74
2022/03/15 10:47:05;;;;;;;0.40;0.30;;;;;;;13.47;72.12;102250.81;5113944;28;20439;-72
2022/03/15 10:49:34;;;;;;;0.40;0.30;;;;;;;13.59;71.38;102257.53;5114066;28;20427;-71
2022/03/15 10:52:00;;;;;;;0.40;0.30;;;;;;;13.71;70.59;102250.94;5113901;28;20543;-73
2022/03/15 10:54:28;;;;;;;0.40;0.30;;;;;;;13.75;71.48;102244.66;5114153;28;20529;-73
2022/03/15 10:56:58;;;;;;;0.40;0.30;;;;;;;13.80;70.21;102241.06;5114263;28;20443;-73
2022/03/15 10:59:24;;;;;;;0.40;0.30;;;;;;;13.87;69.76;102242.41;5113961;28;20818;-73
2022/03/15 11:01:52;;;;;;;0.40;0.30;;;;;;;13.99;70.54;102241.22;5113792;28;20457;-73
2022/03/15 11:04:20;;;;;;;0.40;0.30;;;;;;;14.02;68.63;102236.03;5113756;28;20491;-74
2022/03/15 11:06:49;;;;;;;0.40;0.30;;;;;;;14.09;69.26;102246.63;5113822;28;20867;-74
2022/03/15 11:09:18;;;;;;;0.40;0.30;;;;;;;14.03;70.33;102234.09;5113770;28;20442;-74
2022/03/15 11:11:47;;;;;;;0.40;0.30;;;;;;;14.16;66.36;102241.63;5113689;28;20869;-73
2022/03/15 11:14:15;;;;;;;0.40;0.30;;;;;;;14.24;65.42;102238.31;5113929;28;20440;-74
2022/03/15 11:16:45;;;;;;;0.40;0.30;;;;;;;14.22;61.92;102243.25;5113823;28;20443;-76
2022/03/15 11:19:14;;;;;;;0.40;0.30;;;;;;;14.09;60.29;102236.53;5113441;28;20795;-74
2022/03/15 11:21:43;;;;;;;0.40;0.30;;;;;;;14.03;61.65;102232.22;5113636;28;20439;-72
2022/03/15 11:24:12;;;;;;;0.40;0.30;;;;;;;13.98;61.73;102226.78;5113619;28;20483;-74
2022/03/15 11:26:44;;;;;;;0.40;0.30;;;;;;;14.04;62.37;102222.13;5113672;28;20473;-74
2022/03/15 11:29:12;;;;;;;0.40;0.30;;;;;;;14.21;62.42;102228.00;5113319;28;20431;-74